createdAt,value
2023-04-18T00:01:08.957Z,19.2
2023-04-18T00:04:09.091Z,18.8
2023-04-18T00:07:08.964Z,18.7
2023-04-18T00:10:08.962Z,20.4
2023-04-18T00:13:08.970Z,21.4
2023-04-18T00:16:08.977Z,21
2023-04-18T00:19:09.326Z,19
2023-04-18T00:22:08.968Z,20.7
2023-04-18T00:25:08.973Z,22.3
2023-04-18T00:28:08.987Z,21.2
2023-04-18T00:31:09.033Z,21.6
2023-04-18T00:34:08.977Z,22.5
2023-04-18T00:37:08.980Z,22.3
2023-04-18T00:40:08.979Z,21.9
2023-04-18T00:43:08.975Z,23.7
2023-04-18T00:46:08.990Z,23
2023-04-18T00:49:08.985Z,24.7
2023-04-18T00:52:08.986Z,24
2023-04-18T00:55:08.992Z,25.3
2023-04-18T00:58:08.994Z,24.9
2023-04-18T01:01:09.017Z,26
2023-04-18T01:04:09.028Z,27.8
2023-04-18T01:07:08.993Z,26.5
2023-04-18T01:10:08.992Z,28.7
2023-04-18T01:13:09.006Z,28.8
2023-04-18T01:16:09.038Z,26.9
2023-04-18T01:19:08.998Z,28.9
2023-04-18T01:22:09.003Z,32
2023-04-18T01:25:09.006Z,30.1
2023-04-18T01:28:09.005Z,29.5
2023-04-18T01:31:09.039Z,27.8
2023-04-18T01:34:09.012Z,26.7
2023-04-18T01:37:09.017Z,28
2023-04-18T01:40:09.025Z,25.4
2023-04-18T01:43:09.020Z,25.6
2023-04-18T01:46:09.053Z,24.9
2023-04-18T01:49:09.028Z,25.4
2023-04-18T01:52:09.037Z,25.9
2023-04-18T01:55:09.032Z,25.1
2023-04-18T01:58:09.049Z,25.3
2023-04-18T02:01:09.055Z,25.5
2023-04-18T02:04:09.117Z,24.5
2023-04-18T02:07:09.053Z,24.6
2023-04-18T02:10:09.062Z,23.4
2023-04-18T02:13:09.054Z,24.9
2023-04-18T02:16:09.088Z,24.4
2023-04-18T02:19:09.069Z,25
2023-04-18T02:22:09.065Z,23.1
2023-04-18T02:25:09.075Z,21.8
2023-04-18T02:28:09.066Z,24.9
2023-04-18T02:31:09.087Z,23
2023-04-18T02:34:09.089Z,25.7
2023-04-18T02:37:09.092Z,24.5
2023-04-18T02:40:09.105Z,24
2023-04-18T02:43:09.104Z,24
2023-04-18T02:46:09.175Z,24
2023-04-18T02:49:09.099Z,24.9
2023-04-18T02:52:09.106Z,23.1
2023-04-18T02:55:09.105Z,23.1
2023-04-18T02:58:09.107Z,22.1
2023-04-18T03:01:09.179Z,22.4
2023-04-18T03:04:09.120Z,21.1
2023-04-18T03:07:09.126Z,25.1
2023-04-18T03:10:09.133Z,20.5
2023-04-18T03:13:09.124Z,21.1
2023-04-18T03:16:09.182Z,20.4
2023-04-18T03:19:09.134Z,22.1
2023-04-18T03:22:09.170Z,21.3
2023-04-18T03:25:09.146Z,19.6
2023-04-18T03:28:09.146Z,21.7
2023-04-18T03:31:09.185Z,19.6
2023-04-18T03:34:09.148Z,20.7
2023-04-18T03:37:09.152Z,22.1
2023-04-18T03:40:09.152Z,20.4
2023-04-18T03:43:09.161Z,21.3
2023-04-18T03:46:09.203Z,21.9
2023-04-18T03:49:09.158Z,21.3
2023-04-18T03:52:09.173Z,21.2
2023-04-18T03:55:09.169Z,22
2023-04-18T03:58:09.173Z,21.8
2023-04-18T04:01:09.179Z,20.4
2023-04-18T04:04:09.323Z,20.1
2023-04-18T04:07:09.196Z,20.6
2023-04-18T04:10:09.215Z,21
2023-04-18T04:13:09.184Z,20.3
2023-04-18T04:16:09.247Z,21.9
2023-04-18T04:19:09.203Z,20.2
2023-04-18T04:22:09.217Z,20.3
2023-04-18T04:25:09.209Z,21.4
2023-04-18T04:28:09.215Z,20.9
2023-04-18T04:31:09.208Z,21.2
2023-04-18T04:34:09.213Z,21.4
2023-04-18T04:37:09.227Z,21.9
2023-04-18T04:40:09.246Z,22.1
2023-04-18T04:43:09.227Z,23.2
2023-04-18T04:46:09.268Z,21.8
2023-04-18T04:49:09.219Z,21.4
2023-04-18T04:52:09.231Z,20.7
2023-04-18T04:55:09.233Z,20.5
2023-04-18T04:58:09.251Z,21.7
2023-04-18T05:01:09.307Z,23.2
2023-04-18T05:04:09.349Z,22
2023-04-18T05:07:09.257Z,21.1
2023-04-18T05:10:09.258Z,21.5
2023-04-18T05:13:09.278Z,21.6
2023-04-18T05:16:09.298Z,21.6
2023-04-18T05:19:09.276Z,21.6
2023-04-18T05:22:09.284Z,21.6
2023-04-18T05:25:09.286Z,20.8
2023-04-18T05:28:09.292Z,21.2
2023-04-18T05:31:09.339Z,20.7
2023-04-18T05:34:09.301Z,20.3
2023-04-18T05:37:09.306Z,21.5
2023-04-18T05:40:09.310Z,20.3
2023-04-18T05:43:09.316Z,20.7
2023-04-18T05:46:09.350Z,21.1
2023-04-18T05:49:09.332Z,20.4
2023-04-18T05:52:09.342Z,21.4
2023-04-18T05:55:09.351Z,20.1
2023-04-18T05:58:09.358Z,20.6
2023-04-18T06:01:09.352Z,19.2
2023-04-18T06:04:09.479Z,18.6
2023-04-18T06:07:09.378Z,19.4
2023-04-18T06:10:09.368Z,19.4
2023-04-18T06:13:09.377Z,18.5
2023-04-18T06:16:09.398Z,18.3
2023-04-18T06:19:09.384Z,19.3
2023-04-18T06:22:09.389Z,19.3
2023-04-18T06:25:09.389Z,18.7
2023-04-18T06:28:09.474Z,17.4
2023-04-18T06:31:09.427Z,18
2023-04-18T06:34:09.433Z,17
2023-04-18T06:37:09.414Z,17.1
2023-04-18T06:40:09.419Z,16.2
2023-04-18T06:43:09.430Z,16.1
2023-04-18T06:46:09.436Z,16.7
2023-04-18T06:49:09.431Z,14.7
2023-04-18T06:52:09.463Z,16.3
2023-04-18T06:55:09.443Z,15.9
2023-04-18T06:58:09.502Z,16.8
2023-04-18T07:01:09.468Z,15.3
2023-04-18T07:04:09.562Z,14.7
2023-04-18T07:07:09.472Z,15.8
2023-04-18T07:10:09.504Z,15.3
2023-04-18T07:13:09.547Z,15
2023-04-18T07:16:09.473Z,15.3
2023-04-18T07:19:09.484Z,15.3
2023-04-18T07:22:09.491Z,13.8
2023-04-18T07:25:09.510Z,14
2023-04-18T07:28:09.728Z,14.3
2023-04-18T07:31:09.536Z,14.3
2023-04-18T07:34:09.505Z,14.2
2023-04-18T07:37:09.511Z,13.2
2023-04-18T07:40:09.524Z,13.9
2023-04-18T07:43:09.778Z,12.6
2023-04-18T07:46:09.568Z,13.3
2023-04-18T07:49:09.532Z,12.3
2023-04-18T07:52:09.539Z,12.9
2023-04-18T07:55:09.542Z,12.5
2023-04-18T07:58:09.554Z,11.8
2023-04-18T08:01:09.539Z,13
2023-04-18T08:04:09.643Z,11.1
2023-04-18T08:07:09.548Z,11.4
2023-04-18T08:10:09.557Z,11.8
2023-04-18T08:13:09.561Z,10.7
2023-04-18T08:16:09.603Z,11.4
2023-04-18T08:19:09.564Z,11.5
2023-04-18T08:22:09.575Z,11.2
2023-04-18T08:25:09.577Z,10.9
2023-04-18T08:28:09.586Z,11.1
2023-04-18T08:31:09.596Z,10.9
2023-04-18T08:34:09.589Z,10.1
2023-04-18T08:37:09.594Z,10.8
2023-04-18T08:40:09.592Z,10
2023-04-18T08:43:09.598Z,11.1
2023-04-18T08:46:09.624Z,9.5
2023-04-18T08:49:10.727Z,10.7
2023-04-18T08:52:09.608Z,10.3
2023-04-18T08:55:09.637Z,9.3
2023-04-18T08:58:09.623Z,9.3
2023-04-18T09:01:09.653Z,9.3
2023-04-18T09:04:09.642Z,10.4
2023-04-18T09:07:09.636Z,9.6
2023-04-18T09:10:09.645Z,9.7
2023-04-18T09:13:09.630Z,9.3
2023-04-18T09:16:09.673Z,9.1
2023-04-18T09:19:09.654Z,9
2023-04-18T09:22:09.657Z,8.4
2023-04-18T09:25:09.661Z,8.6
2023-04-18T09:28:09.672Z,9.3
2023-04-18T09:31:09.714Z,8.1
2023-04-18T09:34:09.676Z,9
2023-04-18T09:37:09.722Z,7.9
2023-04-18T09:40:09.684Z,6.9
2023-04-18T09:43:09.689Z,7.2
2023-04-18T09:46:09.754Z,7.9
2023-04-18T09:49:10.992Z,9.1
2023-04-18T09:52:09.719Z,9.5
2023-04-18T09:55:09.708Z,8.8
2023-04-18T09:58:09.707Z,9.9
2023-04-18T10:01:09.721Z,8.9
2023-04-18T10:04:09.777Z,9
2023-04-18T10:07:09.707Z,10.1
2023-04-18T10:10:09.712Z,8.7
2023-04-18T10:13:09.718Z,8.4
2023-04-18T10:16:09.784Z,8.3
2023-04-18T10:19:09.736Z,9
2023-04-18T10:22:09.729Z,8.3
2023-04-18T10:25:09.737Z,9.1
2023-04-18T10:28:09.743Z,8.1
2023-04-18T10:31:09.764Z,8.7
2023-04-18T10:34:09.736Z,7.8
2023-04-18T10:37:09.748Z,7.7
2023-04-18T10:40:09.751Z,7
2023-04-18T10:43:09.756Z,7.7
2023-04-18T10:46:17.299Z,7.6
2023-04-18T10:49:09.767Z,8.7
2023-04-18T10:52:10.487Z,7.7
2023-04-18T10:55:09.770Z,7.9
2023-04-18T10:58:09.767Z,8.6
2023-04-18T11:01:09.790Z,8.3
2023-04-18T11:04:09.846Z,8.7
2023-04-18T11:07:09.794Z,7.9
2023-04-18T11:10:09.780Z,7.9
2023-04-18T11:13:09.792Z,7.1
2023-04-18T11:16:09.815Z,6.7
2023-04-18T11:19:09.794Z,6.2
2023-04-18T11:22:09.803Z,6.6
2023-04-18T11:25:09.797Z,6.1
2023-04-18T11:28:09.802Z,6.9
2023-04-18T11:31:09.806Z,7.3
2023-04-18T11:34:09.811Z,8.1
2023-04-18T11:37:09.822Z,7.8
2023-04-18T11:40:09.812Z,7.8
2023-04-18T11:43:09.815Z,7.7
2023-04-18T11:46:09.886Z,8.3
2023-04-18T11:49:09.825Z,8.2
2023-04-18T11:52:09.826Z,7.5
2023-04-18T11:55:09.835Z,8
2023-04-18T11:58:09.837Z,7.7
2023-04-18T12:01:09.841Z,8
2023-04-18T12:04:09.986Z,8
2023-04-18T12:07:09.853Z,8
2023-04-18T12:10:09.853Z,8.2
2023-04-18T12:13:09.866Z,8.5
2023-04-18T12:16:09.968Z,8.3
2023-04-18T12:19:09.873Z,7.8
2023-04-18T12:22:09.879Z,8.1
2023-04-18T12:25:09.896Z,8.8
2023-04-18T12:28:09.893Z,8.9
2023-04-18T12:31:09.918Z,8.4
2023-04-18T12:34:09.912Z,7.7
2023-04-18T12:37:09.922Z,8.6
2023-04-18T12:40:09.916Z,8
2023-04-18T12:43:09.931Z,8.9
2023-04-18T12:46:09.951Z,8.6
2023-04-18T12:49:09.938Z,7.7
2023-04-18T12:52:09.953Z,9
2023-04-18T12:55:09.959Z,8.8
2023-04-18T12:58:09.972Z,8.7
2023-04-18T13:01:09.981Z,9
2023-04-18T13:04:12.752Z,9.1
2023-04-18T13:07:09.991Z,9.3
2023-04-18T13:10:10.012Z,10.5
2023-04-18T13:13:10.015Z,10
2023-04-18T13:16:10.056Z,9.7
2023-04-18T13:19:10.028Z,9.9
2023-04-18T13:22:10.040Z,11
2023-04-18T13:25:10.056Z,11.1
2023-04-18T13:28:10.061Z,9.6
2023-04-18T13:31:10.064Z,9
2023-04-18T13:34:10.074Z,10.3
2023-04-18T13:37:10.088Z,9.9
2023-04-18T13:40:10.115Z,9.7
2023-04-18T13:43:10.104Z,9.5
2023-04-18T13:46:10.153Z,9.3
2023-04-18T13:49:10.114Z,10.2
2023-04-18T13:52:10.125Z,10.2
2023-04-18T13:55:10.135Z,11.5
2023-04-18T13:58:10.150Z,9.8
2023-04-18T14:01:10.179Z,9.5
2023-04-18T14:04:10.235Z,10.1
2023-04-18T14:07:10.177Z,10.1
2023-04-18T14:10:10.185Z,11.1
2023-04-18T14:13:10.190Z,11.9
2023-04-18T14:16:10.217Z,10.5
2023-04-18T14:19:10.212Z,10
2023-04-18T14:22:10.223Z,10.9
2023-04-18T14:25:10.231Z,11.4
2023-04-18T14:28:10.248Z,11.7
2023-04-18T14:31:10.291Z,13.1
2023-04-18T14:34:10.265Z,11.2
2023-04-18T14:37:10.277Z,12.5
2023-04-18T14:40:10.307Z,10.6
2023-04-18T14:43:10.305Z,14.7
2023-04-18T14:46:10.358Z,9.7
2023-04-18T14:49:10.322Z,13.1
2023-04-18T14:52:10.353Z,11.8
2023-04-18T14:55:10.328Z,11
2023-04-18T14:58:10.424Z,12.5
2023-04-18T15:01:10.354Z,11.5
2023-04-18T15:04:10.522Z,12
2023-04-18T15:07:10.363Z,12.2
2023-04-18T15:10:10.360Z,13.1
2023-04-18T15:13:10.377Z,13.3
2023-04-18T15:16:10.388Z,12.3
2023-04-18T15:19:10.381Z,11.7
2023-04-18T15:22:10.416Z,11.6
2023-04-18T15:25:10.395Z,10.7
2023-04-18T15:28:10.402Z,12.1
2023-04-18T15:31:10.406Z,11.9
2023-04-18T15:34:10.404Z,11
2023-04-18T15:37:10.427Z,12.2
2023-04-18T15:40:10.418Z,12
2023-04-18T15:43:10.425Z,13.8
2023-04-18T15:46:10.457Z,12
2023-04-18T15:49:10.431Z,12.7
2023-04-18T15:52:10.446Z,11.7
2023-04-18T15:55:10.445Z,13
2023-04-18T15:58:10.447Z,12.7
2023-04-18T16:01:10.460Z,13
2023-04-18T16:04:10.490Z,12.2
2023-04-18T16:07:10.457Z,11.3
2023-04-18T16:10:10.794Z,11.8
2023-04-18T16:13:10.461Z,13
2023-04-18T16:16:10.479Z,12.1
2023-04-18T16:19:10.475Z,11.9
2023-04-18T16:22:10.540Z,11.9
2023-04-18T16:25:10.473Z,12.3
2023-04-18T16:28:10.478Z,12.2
2023-04-18T16:31:10.511Z,12
2023-04-18T16:34:10.540Z,11.9
2023-04-18T16:37:10.509Z,12.9
2023-04-18T16:40:10.503Z,10.7
2023-04-18T16:43:10.617Z,12.9
2023-04-18T16:46:10.551Z,11.7
2023-04-18T16:49:10.528Z,12.1
2023-04-18T16:52:10.526Z,11.3
2023-04-18T16:55:10.535Z,11.7
2023-04-18T16:58:10.540Z,10.9
2023-04-18T17:01:10.543Z,10.5
2023-04-18T17:04:10.558Z,10.9
2023-04-18T17:07:10.559Z,10.4
2023-04-18T17:10:10.552Z,11.8
2023-04-18T17:13:10.563Z,10.3
2023-04-18T17:16:10.578Z,10
2023-04-18T17:19:10.590Z,9.6
2023-04-18T17:22:10.576Z,8.4
2023-04-18T17:25:10.606Z,8.8
2023-04-18T17:28:10.584Z,7.4
2023-04-18T17:31:10.592Z,7.8
2023-04-18T17:34:10.596Z,7.6
2023-04-18T17:37:10.590Z,7.3
2023-04-18T17:40:10.600Z,7.8
2023-04-18T17:43:10.614Z,6.6
2023-04-18T17:46:10.686Z,7.3
2023-04-18T17:49:10.612Z,7.4
2023-04-18T17:52:10.608Z,7.3
2023-04-18T17:55:10.620Z,6.5
2023-04-18T17:58:10.625Z,7.1
2023-04-18T18:01:10.699Z,7.9
2023-04-18T18:04:10.726Z,6.9
2023-04-18T18:07:10.639Z,6.2
2023-04-18T18:10:10.667Z,5.3
2023-04-18T18:13:10.656Z,5.4
2023-04-18T18:16:10.677Z,5.9
2023-04-18T18:19:10.664Z,6.1
2023-04-18T18:22:10.668Z,5.6
2023-04-18T18:25:10.683Z,5.4
2023-04-18T18:28:10.673Z,6.3
2023-04-18T18:31:10.685Z,7.6
2023-04-18T18:34:10.682Z,5.4
2023-04-18T18:37:10.695Z,5.5
2023-04-18T18:40:10.688Z,6.3
2023-04-18T18:43:10.696Z,6.1
2023-04-18T18:46:10.736Z,5.4
2023-04-18T18:49:10.724Z,4.5
2023-04-18T18:52:10.715Z,5.4
2023-04-18T18:55:10.728Z,4.8
2023-04-18T18:58:10.723Z,5
2023-04-18T19:01:10.728Z,5.5
2023-04-18T19:04:10.912Z,5.8
2023-04-18T19:07:10.743Z,4.9
2023-04-18T19:10:10.742Z,4.8
2023-04-18T19:13:10.754Z,6.2
2023-04-18T19:16:10.798Z,4.8
2023-04-18T19:19:10.763Z,5.1
2023-04-18T19:22:10.772Z,5.6
2023-04-18T19:25:10.777Z,5.1
2023-04-18T19:28:10.780Z,5.8
2023-04-18T19:31:10.786Z,5.7
2023-04-18T19:34:10.791Z,5.4
2023-04-18T19:37:10.793Z,6
2023-04-18T19:40:10.847Z,5.9
2023-04-18T19:43:10.812Z,5.5
2023-04-18T19:46:10.929Z,5.8
2023-04-18T19:49:10.891Z,6.4
2023-04-18T19:52:10.894Z,6.2
2023-04-18T19:55:10.897Z,5.5
2023-04-18T19:58:10.896Z,6.9
2023-04-18T20:01:10.941Z,6.2
2023-04-18T20:04:11.036Z,6.7
2023-04-18T20:07:10.906Z,6.6
2023-04-18T20:10:10.904Z,6
2023-04-18T20:13:10.900Z,5.9
2023-04-18T20:16:10.946Z,7
2023-04-18T20:19:12.390Z,5.7
2023-04-18T20:22:10.908Z,6.9
2023-04-18T20:25:10.912Z,5.9
2023-04-18T20:28:10.954Z,6.3
2023-04-18T20:31:10.950Z,7.5
2023-04-18T20:34:10.938Z,8.4
2023-04-18T20:37:10.906Z,7.5
2023-04-18T20:40:10.920Z,7.2
2023-04-18T20:43:10.917Z,7.3
2023-04-18T20:46:10.974Z,6.3
2023-04-18T20:49:10.918Z,7.1
2023-04-18T20:52:10.923Z,7.5
2023-04-18T20:55:10.923Z,6.4
2023-04-18T20:58:10.941Z,6.2
2023-04-18T21:01:10.947Z,7.1
2023-04-18T21:04:11.038Z,7.1
2023-04-18T21:07:10.925Z,6.6
2023-04-18T21:10:10.927Z,6.3
2023-04-18T21:13:10.923Z,6.1
2023-04-18T21:16:11.039Z,7.8
2023-04-18T21:19:10.936Z,5.9
2023-04-18T21:22:10.938Z,6.4
2023-04-18T21:25:10.925Z,6.2
2023-04-18T21:28:10.938Z,6.1
2023-04-18T21:31:10.939Z,6.2
2023-04-18T21:34:10.929Z,7.2
2023-04-18T21:37:10.932Z,6.3
2023-04-18T21:40:10.945Z,7.2
2023-04-18T21:43:10.945Z,6.7
2023-04-18T21:46:10.955Z,7.5
2023-04-18T21:49:10.937Z,7.7
2023-04-18T21:52:10.942Z,7.2
2023-04-18T21:55:10.944Z,6.8
2023-04-18T21:58:10.951Z,7.7
2023-04-18T22:01:10.977Z,7.4
2023-04-18T22:04:11.075Z,6.4
2023-04-18T22:07:10.952Z,6.1
2023-04-18T22:10:10.952Z,9.2
2023-04-18T22:13:10.955Z,6.5
2023-04-18T22:16:10.966Z,5.7
2023-04-18T22:19:10.955Z,6.2
2023-04-18T22:22:10.962Z,8
2023-04-18T22:25:10.971Z,6.8
2023-04-18T22:28:10.971Z,9
2023-04-18T22:31:10.983Z,6.3
2023-04-18T22:34:10.977Z,6.3
2023-04-18T22:37:10.979Z,6.2
2023-04-18T22:40:10.990Z,6.6
2023-04-18T22:43:10.990Z,5.8
2023-04-18T22:46:11.014Z,5.9
2023-04-18T22:49:10.995Z,5.4
2023-04-18T22:52:11.008Z,6.4
2023-04-18T22:55:11.022Z,5.6
2023-04-18T22:58:11.030Z,5.5
2023-04-18T23:01:11.051Z,5.6
2023-04-18T23:04:11.253Z,6.2
2023-04-18T23:07:11.042Z,6.3
2023-04-18T23:10:11.054Z,5.3
2023-04-18T23:13:11.051Z,6.2
2023-04-18T23:16:11.087Z,5.4
2023-04-18T23:19:11.077Z,4.9
2023-04-18T23:22:11.077Z,5.4
2023-04-18T23:25:11.083Z,6.6
2023-04-18T23:28:11.108Z,5
2023-04-18T23:31:11.105Z,6
2023-04-18T23:34:11.098Z,6.6
2023-04-18T23:37:11.101Z,5.2
2023-04-18T23:40:11.124Z,6.5
2023-04-18T23:43:11.130Z,7
2023-04-18T23:46:11.127Z,6.2
2023-04-18T23:49:11.136Z,5.5
2023-04-18T23:52:11.158Z,4.8
2023-04-18T23:55:11.154Z,4.5
2023-04-18T23:58:11.153Z,5.4
